createdAt,value
2022-12-01T00:01:46.469Z,100459.38
2022-12-01T00:04:13.378Z,100459.38
2022-12-01T00:06:40.220Z,100464.91
2022-12-01T00:09:06.972Z,100455.91
2022-12-01T00:11:34.479Z,100460.97
2022-12-01T00:14:01.285Z,100458.41
2022-12-01T00:16:28.222Z,100463.22
2022-12-01T00:18:55.373Z,100457.81
2022-12-01T00:21:22.972Z,100455.81
2022-12-01T00:23:51.383Z,100455.94
2022-12-01T00:26:19.142Z,100460.25
2022-12-01T00:28:49.529Z,100463.81
2022-12-01T00:31:17.497Z,100467.75
2022-12-01T00:33:44.379Z,100456.63
2022-12-01T00:36:12.431Z,100469.03
2022-12-01T00:38:39.538Z,100463.69
2022-12-01T00:41:06.479Z,100461.50
2022-12-01T00:43:33.265Z,100463.97
2022-12-01T00:46:00.241Z,100463.34
2022-12-01T00:48:27.132Z,100468.50
2022-12-01T00:50:54.884Z,100465.44
2022-12-01T00:53:22.745Z,100473.69
2022-12-01T00:55:49.673Z,100471.09
2022-12-01T00:58:16.614Z,100472.56
2022-12-01T01:00:43.465Z,100467.56
2022-12-01T01:03:10.911Z,100472.69
2022-12-01T01:05:38.088Z,100481.91
2022-12-01T01:08:09.396Z,100479.22
2022-12-01T01:10:40.041Z,100478.09
2022-12-01T01:13:07.080Z,100477.50
2022-12-01T01:15:34.317Z,100471.09
2022-12-01T01:18:01.356Z,100471.22
2022-12-01T01:20:28.502Z,100470.38
2022-12-01T01:22:55.275Z,100471.47
2022-12-01T01:25:22.168Z,100470.63
2022-12-01T01:27:49.073Z,100473.69
2022-12-01T01:30:15.979Z,100477.00
2022-12-01T01:32:42.752Z,100470.00
2022-12-01T01:35:09.534Z,100477.13
2022-12-01T01:37:36.348Z,100470.84
2022-12-01T01:40:03.365Z,100483.41
2022-12-01T01:42:30.164Z,100472.44
2022-12-01T01:44:57.563Z,100484.38
2022-12-01T01:47:27.671Z,100474.44
2022-12-01T01:49:56.313Z,100485.97
2022-12-01T01:52:23.433Z,100482.31
2022-12-01T01:54:51.740Z,100492.25
2022-12-01T01:57:28.405Z,100485.13
2022-12-01T01:59:58.161Z,100485.13
2022-12-01T02:02:25.051Z,100482.91
2022-12-01T02:04:56.668Z,100485.00
2022-12-01T02:07:23.961Z,100480.81
2022-12-01T02:09:51.663Z,100477.25
2022-12-01T02:12:18.586Z,100478.00
2022-12-01T02:15:03.687Z,100479.47
2022-12-01T02:17:30.477Z,100478.72
2022-12-01T02:20:17.155Z,100482.41
2022-12-01T02:22:55.215Z,100478.59
2022-12-01T02:25:47.831Z,100475.66
2022-12-01T02:28:33.127Z,100471.50
2022-12-01T02:31:15.317Z,100466.81
2022-12-01T02:33:45.828Z,100470.50
2022-12-01T02:36:20.304Z,100473.31
2022-12-01T02:38:50.241Z,100469.03
2022-12-01T02:41:20.062Z,100465.72
2022-12-01T02:43:55.960Z,100457.47
2022-12-01T02:46:29.265Z,100469.91
2022-12-01T02:48:58.479Z,100461.03
2022-12-01T02:51:30.420Z,100463.03
2022-12-01T02:54:01.553Z,100460.44
2022-12-01T02:56:28.861Z,100473.19
2022-12-01T02:58:55.668Z,100474.44
2022-12-01T03:01:32.324Z,100468.31
2022-12-01T03:04:28.504Z,100467.91
2022-12-01T03:06:58.081Z,100477.25
2022-12-01T03:09:31.098Z,100481.19
2022-12-01T03:12:05.019Z,100477.00
2022-12-01T03:14:37.786Z,100464.13
2022-12-01T03:17:07.365Z,100466.06
2022-12-01T03:19:34.122Z,100461.66
2022-12-01T03:22:12.857Z,100461.66
2022-12-01T03:24:42.159Z,100454.78
2022-12-01T03:27:11.097Z,100460.78
2022-12-01T03:29:43.664Z,100470.75
2022-12-01T03:32:18.477Z,100470.75
2022-12-01T03:34:47.518Z,100462.78
2022-12-01T03:37:17.925Z,100471.13
2022-12-01T03:39:46.766Z,100463.00
2022-12-01T03:42:16.434Z,100461.91
2022-12-01T03:44:48.586Z,100463.66
2022-12-01T03:47:20.709Z,100466.47
2022-12-01T03:49:50.155Z,100461.06
2022-12-01T03:52:25.669Z,100456.13
2022-12-01T03:55:02.122Z,100465.22
2022-12-01T03:57:34.585Z,100458.47
2022-12-01T04:00:01.798Z,100466.94
2022-12-01T04:02:28.880Z,100468.91
2022-12-01T04:04:55.684Z,100471.72
2022-12-01T04:07:22.633Z,100467.91
2022-12-01T04:09:49.753Z,100480.56
2022-12-01T04:12:16.719Z,100476.28
2022-12-01T04:14:43.503Z,100485.59
2022-12-01T04:17:11.411Z,100488.31
2022-12-01T04:19:38.187Z,100492.22
2022-12-01T04:22:05.006Z,100485.94
2022-12-01T04:24:31.785Z,100491.59
2022-12-01T04:26:58.564Z,100485.56
2022-12-01T04:29:25.394Z,100492.81
2022-12-01T04:31:52.199Z,100484.69
2022-12-01T04:34:20.077Z,100484.09
2022-12-01T04:36:56.285Z,100494.38
2022-12-01T04:39:23.083Z,100491.56
2022-12-01T04:41:50.138Z,100496.97
2022-12-01T04:44:16.969Z,100487.78
2022-12-01T04:46:43.978Z,100493.53
2022-12-01T04:49:10.807Z,100491.69
2022-12-01T04:51:37.639Z,100493.91
2022-12-01T04:54:04.476Z,100488.00
2022-12-01T04:56:32.007Z,100493.41
2022-12-01T04:58:58.848Z,100488.50
2022-12-01T05:01:25.808Z,100492.69
2022-12-01T05:03:52.702Z,100490.72
2022-12-01T05:06:21.117Z,100498.41
2022-12-01T05:08:48.523Z,100496.81
2022-12-01T05:11:18.169Z,100496.59
2022-12-01T05:13:45.771Z,100499.63
2022-12-01T05:16:18.124Z,100505.16
2022-12-01T05:18:54.393Z,100500.13
2022-12-01T05:21:21.240Z,100502.44
2022-12-01T05:23:48.036Z,100499.97
2022-12-01T05:26:14.881Z,100500.66
2022-12-01T05:28:41.701Z,100506.91
2022-12-01T05:31:08.649Z,100506.91
2022-12-01T05:33:35.497Z,100506.69
2022-12-01T05:36:02.331Z,100508.16
2022-12-01T05:38:29.159Z,100502.16
2022-12-01T05:40:56.016Z,100510.88
2022-12-01T05:43:28.768Z,100508.56
2022-12-01T05:45:56.943Z,100501.91
2022-12-01T05:48:24.180Z,100511.97
2022-12-01T05:50:51.009Z,100508.91
2022-12-01T05:53:18.414Z,100511.09
2022-12-01T05:55:45.330Z,100508.63
2022-12-01T05:58:12.242Z,100518.75
2022-12-01T06:00:45.338Z,100521.56
2022-12-01T06:03:13.411Z,100526.19
2022-12-01T06:05:40.683Z,100519.59
2022-12-01T06:08:07.508Z,100521.44
2022-12-01T06:10:34.336Z,100523.50
2022-12-01T06:13:01.133Z,100525.09
2022-12-01T06:15:27.961Z,100523.75
2022-12-01T06:17:55.181Z,100530.97
2022-12-01T06:20:22.098Z,100537.75
2022-12-01T06:22:49.172Z,100527.94
2022-12-01T06:25:16.081Z,100532.97
2022-12-01T06:27:42.992Z,100533.84
2022-12-01T06:30:10.047Z,100538.88
2022-12-01T06:32:38.881Z,100539.63
2022-12-01T06:35:05.964Z,100537.91
2022-12-01T06:37:32.722Z,100538.75
2022-12-01T06:39:59.527Z,100532.97
2022-12-01T06:42:29.292Z,100536.44
2022-12-01T06:44:56.230Z,100548.81
2022-12-01T06:47:23.181Z,100545.25
2022-12-01T06:49:50.141Z,100547.06
2022-12-01T06:52:17.167Z,100548.72
2022-12-01T06:54:44.044Z,100553.34
2022-12-01T06:57:11.191Z,100550.66
2022-12-01T06:59:38.080Z,100546.34
2022-12-01T07:02:04.934Z,100548.75
2022-12-01T07:04:31.759Z,100552.56
2022-12-01T07:06:58.597Z,100553.97
2022-12-01T07:09:25.391Z,100555.56
2022-12-01T07:11:52.164Z,100559.75
2022-12-01T07:14:25.993Z,100556.56
2022-12-01T07:16:52.841Z,100560.47
2022-12-01T07:19:19.708Z,100563.19
2022-12-01T07:21:46.968Z,100566.97
2022-12-01T07:24:13.969Z,100567.44
2022-12-01T07:26:41.235Z,100570.88
2022-12-01T07:29:17.256Z,100567.72
2022-12-01T07:31:44.099Z,100567.88
2022-12-01T07:34:12.325Z,100575.97
2022-12-01T07:36:39.293Z,100575.03
2022-12-01T07:39:06.880Z,100578.66
2022-12-01T07:41:34.310Z,100582.56
2022-12-01T07:44:01.514Z,100584.66
2022-12-01T07:46:28.543Z,100580.16
2022-12-01T07:48:56.050Z,100584.13
2022-12-01T07:51:25.527Z,100586.06
2022-12-01T07:53:53.037Z,100583.25
2022-12-01T07:56:20.728Z,100586.72
2022-12-01T07:58:48.649Z,100584.66
2022-12-01T08:01:19.926Z,100578.78
2022-12-01T08:03:50.722Z,100587.75
2022-12-01T08:06:18.203Z,100578.16
2022-12-01T08:08:45.364Z,100579.66
2022-12-01T08:11:13.725Z,100578.22
2022-12-01T08:13:40.961Z,100577.53
2022-12-01T08:16:08.932Z,100574.53
2022-12-01T08:18:36.589Z,100580.22
2022-12-01T08:21:03.818Z,100590.97
2022-12-01T08:23:31.680Z,100588.78
2022-12-01T08:26:05.541Z,100588.53
2022-12-01T08:28:32.599Z,100587.00
2022-12-01T08:30:59.460Z,100595.44
2022-12-01T08:33:26.510Z,100590.03
2022-12-01T08:35:53.296Z,100594.81
2022-12-01T08:38:20.078Z,100598.94
2022-12-01T08:40:46.870Z,100595.38
2022-12-01T08:43:34.699Z,100593.53
2022-12-01T08:46:01.271Z,100591.44
2022-12-01T08:48:28.364Z,100594.03
2022-12-01T08:51:03.993Z,100592.53
2022-12-01T08:53:31.194Z,100580.16
2022-12-01T08:56:01.567Z,100581.03
2022-12-01T08:58:28.896Z,100587.91
2022-12-01T09:01:02.659Z,100581.44
2022-12-01T09:03:30.191Z,100578.56
2022-12-01T09:06:07.559Z,100580.41
2022-12-01T09:08:34.575Z,100581.38
2022-12-01T09:11:04.625Z,100573.66
2022-12-01T09:13:32.416Z,100574.31
2022-12-01T09:16:00.666Z,100571.25
2022-12-01T09:18:27.598Z,100579.75
2022-12-01T09:20:55.072Z,100574.13
2022-12-01T09:23:22.441Z,100576.72
2022-12-01T09:25:50.137Z,100573.78
2022-12-01T09:28:17.243Z,100581.41
2022-12-01T09:30:44.543Z,100578.81
2022-12-01T09:33:11.621Z,100582.28
2022-12-01T09:35:38.652Z,100587.59
2022-12-01T09:38:05.581Z,100583.75
2022-12-01T09:40:34.975Z,100579.09
2022-12-01T09:43:03.322Z,100591.00
2022-12-01T09:45:32.031Z,100575.09
2022-12-01T09:48:00.646Z,100577.88
2022-12-01T09:50:27.759Z,100579.88
2022-12-01T09:52:57.466Z,100573.25
2022-12-01T09:55:25.071Z,100567.50
2022-12-01T09:57:53.155Z,100569.72
2022-12-01T10:00:20.183Z,100565.56
2022-12-01T10:03:13.180Z,100560.66
2022-12-01T10:09:11.729Z,100559.19
2022-12-01T10:11:42.417Z,100553.03
2022-12-01T10:14:19.304Z,100558.22
2022-12-01T10:16:54.007Z,100552.53
2022-12-01T10:19:25.500Z,100548.25
2022-12-01T10:21:58.056Z,100548.50
2022-12-01T10:24:45.841Z,100545.59
2022-12-01T10:27:15.476Z,100542.72
2022-12-01T10:29:48.029Z,100538.31
2022-12-01T10:32:17.731Z,100541.50
2022-12-01T10:34:44.830Z,100537.69
2022-12-01T10:37:30.339Z,100541.13
2022-12-01T10:39:58.361Z,100536.06
2022-12-01T10:42:30.720Z,100527.38
2022-12-01T10:45:00.747Z,100531.44
2022-12-01T10:47:27.564Z,100526.03
2022-12-01T10:49:54.902Z,100524.19
2022-12-01T10:52:38.685Z,100518.16
2022-12-01T10:55:23.543Z,100519.88
2022-12-01T10:57:50.759Z,100519.41
2022-12-01T11:00:57.375Z,100512.75
2022-12-01T11:03:22.533Z,100512.63
2022-12-01T11:05:54.619Z,100498.38
2022-12-01T11:08:29.410Z,100507.84
2022-12-01T11:10:56.569Z,100512.16
2022-12-01T11:13:35.008Z,100503.81
2022-12-01T11:16:03.593Z,100496.41
2022-12-01T11:18:34.795Z,100500.34
2022-12-01T11:21:07.473Z,100499.34
2022-12-01T11:23:44.592Z,100502.56
2022-12-01T11:26:13.512Z,100497.84
2022-12-01T11:28:43.041Z,100500.06
2022-12-01T11:31:10.705Z,100497.50
2022-12-01T11:33:42.904Z,100501.53
2022-12-01T11:36:15.948Z,100495.13
2022-12-01T11:38:43.067Z,100493.28
2022-12-01T11:41:24.469Z,100493.22
2022-12-01T11:44:01.118Z,100492.47
2022-12-01T11:46:31.245Z,100483.94
2022-12-01T11:48:58.475Z,100476.53
2022-12-01T11:51:35.011Z,100474.53
2022-12-01T11:54:06.655Z,100477.34
2022-12-01T11:56:33.655Z,100481.66
2022-12-01T11:59:01.455Z,100479.56
2022-12-01T12:01:40.165Z,100487.34
2022-12-01T12:04:06.944Z,100478.59
2022-12-01T12:06:52.514Z,100480.19
2022-12-01T12:09:28.385Z,100471.47
2022-12-01T12:12:27.623Z,100473.03
2022-12-01T12:15:01.007Z,100461.56
2022-12-01T12:17:30.639Z,100463.56
2022-12-01T12:20:16.495Z,100473.84
2022-12-01T12:22:56.123Z,100466.59
2022-12-01T12:25:22.953Z,100467.84
2022-12-01T12:28:01.761Z,100463.88
2022-12-01T12:30:29.825Z,100464.50
2022-12-01T12:33:15.343Z,100464.03
2022-12-01T12:35:42.096Z,100462.66
2022-12-01T12:38:27.600Z,100461.31
2022-12-01T12:40:54.414Z,100461.22
2022-12-01T12:43:23.514Z,100454.69
2022-12-01T12:46:05.739Z,100452.16
2022-12-01T12:48:32.733Z,100456.03
2022-12-01T12:51:07.080Z,100466.97
2022-12-01T12:53:40.099Z,100460.06
2022-12-01T12:56:10.598Z,100462.31
2022-12-01T12:58:37.393Z,100462.78
2022-12-01T13:01:10.944Z,100459.53
2022-12-01T13:03:55.799Z,100466.19
2022-12-01T13:06:30.588Z,100459.81
2022-12-01T13:09:01.225Z,100454.44
2022-12-01T13:11:34.830Z,100456.75
2022-12-01T13:14:04.365Z,100449.47
2022-12-01T13:16:33.540Z,100454.53
2022-12-01T13:19:03.115Z,100446.91
2022-12-01T13:21:33.911Z,100453.91
2022-12-01T13:24:01.140Z,100436.56
2022-12-01T13:26:28.188Z,100439.91
2022-12-01T13:28:56.515Z,100435.97
2022-12-01T13:31:23.815Z,100448.38
2022-12-01T13:33:55.734Z,100441.25
2022-12-01T13:36:45.836Z,100437.69
2022-12-01T13:39:29.740Z,100442.28
2022-12-01T13:41:58.593Z,100440.91
2022-12-01T13:44:27.226Z,100438.28
2022-12-01T13:47:17.153Z,100439.91
2022-12-01T13:49:45.391Z,100437.56
2022-12-01T13:52:20.957Z,100441.16
2022-12-01T13:55:00.046Z,100446.97
2022-12-01T13:57:27.916Z,100448.81
2022-12-01T13:59:57.842Z,100431.00
2022-12-01T14:02:25.689Z,100428.91
2022-12-01T14:04:52.729Z,100419.47
2022-12-01T14:07:26.397Z,100431.78
2022-12-01T14:09:56.026Z,100418.25
2022-12-01T14:12:30.572Z,100425.41
2022-12-01T14:15:02.676Z,100423.44
2022-12-01T14:17:30.759Z,100423.19
2022-12-01T14:20:12.544Z,100422.97
2022-12-01T14:22:46.839Z,100423.47
2022-12-01T14:25:19.548Z,100426.28
2022-12-01T14:27:47.539Z,100428.13
2022-12-01T14:30:33.123Z,100426.19
2022-12-01T14:33:35.294Z,100412.03
2022-12-01T14:36:02.142Z,100417.94
2022-12-01T14:38:29.046Z,100414.13
2022-12-01T14:40:56.246Z,100411.44
2022-12-01T14:43:25.416Z,100413.03
2022-12-01T14:46:01.404Z,100414.25
2022-12-01T14:48:34.330Z,100413.53
2022-12-01T14:51:21.350Z,100412.91
2022-12-01T14:53:48.617Z,100409.72
2022-12-01T14:56:18.626Z,100412.19
2022-12-01T14:58:56.295Z,100404.81
2022-12-01T15:01:23.874Z,100406.53
2022-12-01T15:03:51.928Z,100398.91
2022-12-01T15:06:20.065Z,100400.53
2022-12-01T15:09:10.541Z,100408.25
2022-12-01T15:11:33.994Z,100395.34
2022-12-01T15:14:00.898Z,100397.69
2022-12-01T15:16:29.358Z,100411.09
2022-12-01T15:18:56.468Z,100408.00
2022-12-01T15:21:28.087Z,100412.91
2022-12-01T15:23:54.862Z,100397.34
2022-12-01T15:26:22.914Z,100388.38
2022-12-01T15:28:49.952Z,100399.78
2022-12-01T15:31:16.987Z,100397.34
2022-12-01T15:33:47.171Z,100396.31
2022-12-01T15:36:14.395Z,100406.53
2022-12-01T15:38:42.133Z,100396.59
2022-12-01T15:41:28.881Z,100404.91
2022-12-01T15:43:57.867Z,100403.44
2022-12-01T15:46:28.942Z,100400.25
2022-12-01T15:49:09.195Z,100403.06
2022-12-01T15:51:36.082Z,100405.53
2022-12-01T15:54:03.415Z,100397.56
2022-12-01T15:56:36.109Z,100403.44
2022-12-01T15:59:07.392Z,100409.59
2022-12-01T16:01:34.453Z,100410.31
2022-12-01T16:04:03.795Z,100404.94
2022-12-01T16:06:32.080Z,100403.81
2022-12-01T16:09:00.712Z,100407.50
2022-12-01T16:11:27.633Z,100411.03
2022-12-01T16:14:23.607Z,100405.88
2022-12-01T16:16:51.220Z,100410.53
2022-12-01T16:19:18.084Z,100420.59
2022-12-01T16:21:46.613Z,100422.81
2022-12-01T16:24:14.803Z,100419.50
2022-12-01T16:26:53.202Z,100417.78
2022-12-01T16:29:23.953Z,100426.50
2022-12-01T16:32:19.245Z,100421.09
2022-12-01T16:34:46.307Z,100435.81
2022-12-01T16:37:14.179Z,100431.75
2022-12-01T16:39:41.122Z,100433.47
2022-12-01T16:42:11.075Z,100429.69
2022-12-01T16:44:37.893Z,100439.38
2022-12-01T16:47:10.113Z,100435.31
2022-12-01T16:49:38.020Z,100435.41
2022-12-01T16:52:16.029Z,100441.81
2022-12-01T16:54:51.915Z,100432.50
2022-12-01T16:57:18.948Z,100432.59
2022-12-01T16:59:45.777Z,100431.00
2022-12-01T17:02:12.624Z,100430.03
2022-12-01T17:04:39.463Z,100430.13
2022-12-01T17:07:06.307Z,100421.88
2022-12-01T17:09:33.161Z,100427.56
2022-12-01T17:11:59.955Z,100424.84
2022-12-01T17:14:26.742Z,100427.06
2022-12-01T17:16:53.572Z,100433.22
2022-12-01T17:19:20.355Z,100429.16
2022-12-01T17:21:47.131Z,100438.63
2022-12-01T17:24:18.687Z,100438.34
2022-12-01T17:26:45.968Z,100433.31
2022-12-01T17:29:12.805Z,100438.34
2022-12-01T17:31:39.697Z,100437.56
2022-12-01T17:34:06.555Z,100435.75
2022-12-01T17:36:34.631Z,100426.78
2022-12-01T17:39:01.530Z,100435.53
2022-12-01T17:41:28.365Z,100429.97
2022-12-01T17:43:55.174Z,100430.25
2022-12-01T17:46:22.104Z,100431.19
2022-12-01T17:48:48.954Z,100416.22
2022-12-01T17:51:15.762Z,100429.22
2022-12-01T17:53:42.675Z,100423.44
2022-12-01T17:56:10.705Z,100422.50
2022-12-01T17:58:37.881Z,100421.88
2022-12-01T18:01:05.384Z,100421.00
2022-12-01T18:03:32.270Z,100427.50
2022-12-01T18:06:00.346Z,100436.19
2022-12-01T18:08:28.134Z,100436.56
2022-12-01T18:10:55.254Z,100427.72
2022-12-01T18:13:22.552Z,100437.41
2022-12-01T18:15:49.443Z,100437.19
2022-12-01T18:18:16.339Z,100434.72
2022-12-01T18:20:43.743Z,100440.00
2022-12-01T18:23:11.220Z,100426.72
2022-12-01T18:25:38.562Z,100433.59
2022-12-01T18:28:05.770Z,100434.00
2022-12-01T18:30:33.807Z,100431.34
2022-12-01T18:33:01.022Z,100425.22
2022-12-01T18:35:31.784Z,100437.84
2022-12-01T18:37:58.967Z,100435.41
2022-12-01T18:40:26.401Z,100431.41
2022-12-01T18:42:53.215Z,100431.06
2022-12-01T18:45:21.407Z,100439.38
2022-12-01T18:47:48.426Z,100429.69
2022-12-01T18:50:15.251Z,100436.06
2022-12-01T18:52:42.016Z,100435.78
2022-12-01T18:55:09.033Z,100433.22
2022-12-01T18:57:35.852Z,100436.75
2022-12-01T19:00:04.571Z,100434.19
2022-12-01T19:02:31.506Z,100436.59
2022-12-01T19:04:58.366Z,100433.53
2022-12-01T19:07:29.511Z,100432.81
2022-12-01T19:09:56.733Z,100430.84
2022-12-01T19:12:25.278Z,100428.03
2022-12-01T19:14:52.448Z,100422.25
2022-12-01T19:17:19.800Z,100421.91
2022-12-01T19:19:47.620Z,100413.69
2022-12-01T19:22:16.338Z,100413.56
2022-12-01T19:24:48.629Z,100406.34
2022-12-01T19:27:17.494Z,100409.66
2022-12-01T19:29:44.464Z,100415.53
2022-12-01T19:32:13.066Z,100416.09
2022-12-01T19:34:39.922Z,100415.97
2022-12-01T19:37:06.752Z,100408.00
2022-12-01T19:39:33.594Z,100414.28
2022-12-01T19:42:00.487Z,100423.50
2022-12-01T19:44:27.365Z,100419.78
2022-12-01T19:46:54.290Z,100416.91
2022-12-01T19:49:21.122Z,100420.59
2022-12-01T19:51:47.922Z,100417.88
2022-12-01T19:54:16.506Z,100423.16
2022-12-01T19:56:43.849Z,100417.16
2022-12-01T19:59:11.866Z,100415.19
2022-12-01T20:01:39.179Z,100415.56
2022-12-01T20:04:07.377Z,100416.97
2022-12-01T20:06:35.762Z,100426.16
2022-12-01T20:09:03.822Z,100421.09
2022-12-01T20:11:31.136Z,100439.75
2022-12-01T20:13:58.493Z,100427.88
2022-12-01T20:16:26.547Z,100426.44
2022-12-01T20:18:53.986Z,100425.56
2022-12-01T20:21:20.742Z,100427.50
2022-12-01T20:23:49.070Z,100428.69
2022-12-01T20:26:16.847Z,100438.25
2022-12-01T20:28:44.965Z,100425.38
2022-12-01T20:31:13.609Z,100421.59
2022-12-01T20:33:41.116Z,100417.19
2022-12-01T20:36:08.268Z,100413.44
2022-12-01T20:38:35.957Z,100413.97
2022-12-01T20:41:03.078Z,100409.19
2022-12-01T20:43:29.968Z,100422.03
2022-12-01T20:45:56.927Z,100414.19
2022-12-01T20:48:23.727Z,100416.00
2022-12-01T20:50:50.530Z,100416.88
2022-12-01T20:53:17.454Z,100425.16
2022-12-01T20:55:44.308Z,100417.34
2022-12-01T20:58:11.781Z,100414.63
2022-12-01T21:00:40.909Z,100410.88
2022-12-01T21:03:07.753Z,100414.09
2022-12-01T21:05:34.550Z,100421.22
2022-12-01T21:08:02.498Z,100417.44
2022-12-01T21:10:29.393Z,100416.47
2022-12-01T21:12:59.516Z,100413.88
2022-12-01T21:15:26.289Z,100417.97
2022-12-01T21:17:56.187Z,100422.81
2022-12-01T21:20:42.462Z,100414.84
2022-12-01T21:23:14.607Z,100420.03
2022-12-01T21:25:43.940Z,100414.06
2022-12-01T21:28:21.342Z,100419.56
2022-12-01T21:30:48.547Z,100417.84
2022-12-01T21:33:21.317Z,100418.94
2022-12-01T21:35:49.717Z,100420.66
2022-12-01T21:38:21.667Z,100426.78
2022-12-01T21:40:49.081Z,100423.97
2022-12-01T21:43:23.102Z,100433.59
2022-12-01T21:45:51.904Z,100430.81
2022-12-01T21:48:20.247Z,100421.22
2022-12-01T21:50:52.392Z,100431.31
2022-12-01T21:53:21.268Z,100426.91
2022-12-01T21:55:48.043Z,100422.94
2022-12-01T21:58:21.938Z,100416.56
2022-12-01T22:00:48.867Z,100420.75
2022-12-01T22:03:15.615Z,100424.22
2022-12-01T22:06:07.070Z,100416.91
2022-12-01T22:08:35.225Z,100409.69
2022-12-01T22:11:02.049Z,100413.88
2022-12-01T22:13:47.195Z,100409.69
2022-12-01T22:16:20.283Z,100408.84
2022-12-01T22:18:49.721Z,100408.28
2022-12-01T22:21:22.559Z,100399.47
2022-12-01T22:23:50.262Z,100398.28
2022-12-01T22:26:19.871Z,100400.22
2022-12-01T22:28:47.193Z,100404.97
2022-12-01T22:31:19.357Z,100404.88
2022-12-01T22:33:46.202Z,100401.75
2022-12-01T22:36:20.647Z,100394.66
2022-12-01T22:38:47.558Z,100400.25
2022-12-01T22:41:15.412Z,100396.78
2022-12-01T22:43:51.644Z,100394.41
2022-12-01T22:46:22.839Z,100398.59
2022-12-01T22:48:49.756Z,100389.13
2022-12-01T22:51:23.857Z,100387.09
2022-12-01T22:53:53.179Z,100390.97
2022-12-01T22:56:26.124Z,100390.31
2022-12-01T22:58:53.189Z,100388.28
2022-12-01T23:01:30.012Z,100381.84
2022-12-01T23:04:11.812Z,100387.97
2022-12-01T23:06:44.703Z,100390.38
2022-12-01T23:09:13.095Z,100389.69
2022-12-01T23:11:42.443Z,100390.16
2022-12-01T23:14:15.436Z,100383.78
2022-12-01T23:16:42.330Z,100398.66
2022-12-01T23:19:09.160Z,100380.16
2022-12-01T23:21:36.228Z,100364.53
2022-12-01T23:24:04.012Z,100365.72
2022-12-01T23:26:31.332Z,100363.25
2022-12-01T23:28:59.913Z,100358.06
2022-12-01T23:31:29.215Z,100353.75
2022-12-01T23:33:56.098Z,100356.44
2022-12-01T23:36:24.422Z,100359.25
2022-12-01T23:38:58.095Z,100359.03
2022-12-01T23:41:33.974Z,100355.69
2022-12-01T23:44:01.855Z,100347.09
2022-12-01T23:46:28.961Z,100350.00
2022-12-01T23:48:59.761Z,100353.97
2022-12-01T23:51:31.075Z,100348.69
2022-12-01T23:54:00.014Z,100346.34
2022-12-01T23:56:28.336Z,100347.09
2022-12-01T23:58:55.863Z,100346.97
